createdAt,value
2023-04-24T00:02:13.336Z,10.98
2023-04-24T00:04:42.793Z,10.98
2023-04-24T00:07:11.250Z,10.97
2023-04-24T00:09:39.327Z,10.98
2023-04-24T00:12:07.414Z,11.00
2023-04-24T00:14:35.411Z,10.97
2023-04-24T00:17:04.795Z,10.98
2023-04-24T00:19:33.095Z,11.00
2023-04-24T00:22:01.027Z,11.01
2023-04-24T00:24:28.982Z,11.02
2023-04-24T00:26:57.008Z,11.00
2023-04-24T00:29:25.067Z,10.98
2023-04-24T00:31:53.326Z,10.92
2023-04-24T00:34:21.357Z,10.92
2023-04-24T00:36:51.333Z,10.90
2023-04-24T00:39:19.342Z,10.89
2023-04-24T00:41:47.854Z,10.89
2023-04-24T00:44:16.018Z,10.88
2023-04-24T00:46:44.059Z,10.87
2023-04-24T00:49:12.171Z,10.87
2023-04-24T00:51:40.123Z,10.88
2023-04-24T00:54:08.070Z,10.90
2023-04-24T00:56:36.317Z,10.92
2023-04-24T00:59:04.223Z,10.93
2023-04-24T01:01:32.927Z,10.94
2023-04-24T01:04:01.103Z,10.92
2023-04-24T01:06:33.445Z,10.91
2023-04-24T01:09:01.799Z,10.87
2023-04-24T01:11:29.746Z,10.82
2023-04-24T01:13:57.800Z,10.79
2023-04-24T01:16:25.861Z,10.78
2023-04-24T01:18:53.873Z,10.74
2023-04-24T01:21:22.249Z,10.70
2023-04-24T01:23:50.302Z,10.65
2023-04-24T01:26:19.150Z,10.63
2023-04-24T01:28:47.095Z,10.65
2023-04-24T01:31:15.178Z,10.63
2023-04-24T01:33:44.199Z,10.58
2023-04-24T01:36:13.344Z,10.63
2023-04-24T01:38:41.499Z,10.58
2023-04-24T01:41:09.520Z,10.61
2023-04-24T01:43:37.548Z,10.58
2023-04-24T01:46:05.554Z,10.54
2023-04-24T01:48:33.774Z,10.51
2023-04-24T01:51:01.829Z,10.53
2023-04-24T01:53:29.838Z,10.49
2023-04-24T01:55:57.908Z,10.48
2023-04-24T01:58:25.823Z,10.47
2023-04-24T02:00:53.874Z,10.41
2023-04-24T02:03:22.076Z,10.41
2023-04-24T02:05:50.200Z,10.42
2023-04-24T02:08:18.147Z,10.42
2023-04-24T02:10:46.554Z,10.39
2023-04-24T02:13:14.566Z,10.36
2023-04-24T02:15:42.667Z,10.32
2023-04-24T02:18:10.892Z,10.29
2023-04-24T02:20:39.194Z,10.27
2023-04-24T02:23:07.422Z,10.27
2023-04-24T02:25:35.845Z,10.34
2023-04-24T02:28:04.669Z,10.31
2023-04-24T02:30:32.928Z,10.32
2023-04-24T02:33:00.819Z,10.29
2023-04-24T02:35:28.970Z,10.25
2023-04-24T02:37:57.005Z,10.28
2023-04-24T02:40:24.949Z,10.27
2023-04-24T02:42:52.868Z,10.25
2023-04-24T02:45:20.938Z,10.26
2023-04-24T02:47:48.957Z,10.21
2023-04-24T02:50:17.204Z,10.20
2023-04-24T02:52:45.292Z,10.21
2023-04-24T02:55:13.368Z,10.18
2023-04-24T02:57:41.379Z,10.15
2023-04-24T03:00:09.812Z,10.14
2023-04-24T03:02:37.910Z,10.15
2023-04-24T03:05:06.832Z,10.15
2023-04-24T03:07:34.805Z,10.11
2023-04-24T03:10:02.853Z,10.11
2023-04-24T03:12:30.878Z,10.12
2023-04-24T03:14:58.901Z,10.12
2023-04-24T03:17:26.933Z,10.14
2023-04-24T03:19:54.842Z,10.10
2023-04-24T03:22:22.846Z,10.09
2023-04-24T03:24:50.851Z,10.04
2023-04-24T03:27:18.767Z,10.05
2023-04-24T03:29:46.837Z,10.02
2023-04-24T03:32:14.840Z,10.03
2023-04-24T03:34:42.862Z,9.99
2023-04-24T03:37:10.777Z,9.96
2023-04-24T03:39:38.772Z,9.90
2023-04-24T03:42:06.957Z,9.89
2023-04-24T03:44:34.947Z,9.92
2023-04-24T03:47:02.957Z,9.90
2023-04-24T03:49:30.923Z,9.87
2023-04-24T03:51:58.817Z,9.85
2023-04-24T03:54:26.792Z,9.86
2023-04-24T03:56:54.711Z,9.87
2023-04-24T03:59:22.740Z,9.90
2023-04-24T04:01:50.821Z,9.94
2023-04-24T04:04:18.999Z,9.97
2023-04-24T04:06:47.110Z,9.99
2023-04-24T04:09:15.152Z,10.02
2023-04-24T04:11:43.103Z,10.01
2023-04-24T04:14:11.049Z,9.98
2023-04-24T04:16:39.055Z,9.96
2023-04-24T04:19:07.914Z,9.97
2023-04-24T04:21:35.855Z,9.97
2023-04-24T04:24:03.839Z,9.97
2023-04-24T04:26:34.993Z,10.00
2023-04-24T04:29:03.341Z,9.98
2023-04-24T04:31:31.841Z,10.00
2023-04-24T04:33:59.919Z,9.98
2023-04-24T04:36:28.335Z,9.97
2023-04-24T04:38:57.007Z,9.96
2023-04-24T04:41:25.231Z,9.96
2023-04-24T04:43:53.155Z,9.97
2023-04-24T04:46:21.234Z,9.98
2023-04-24T04:48:49.218Z,9.99
2023-04-24T04:51:17.191Z,9.96
2023-04-24T04:53:45.257Z,10.01
2023-04-24T04:56:13.237Z,10.02
2023-04-24T04:58:41.270Z,10.07
2023-04-24T05:01:09.478Z,10.09
2023-04-24T05:03:38.561Z,10.11
2023-04-24T05:06:07.003Z,10.11
2023-04-24T05:08:35.182Z,10.10
2023-04-24T05:11:03.459Z,10.04
2023-04-24T05:13:39.084Z,10.06
2023-04-24T05:16:09.477Z,10.05
2023-04-24T05:18:37.623Z,10.04
2023-04-24T05:21:05.738Z,10.07
2023-04-24T05:23:33.772Z,10.09
2023-04-24T05:26:01.820Z,10.10
2023-04-24T05:28:30.642Z,10.08
2023-04-24T05:30:58.962Z,10.06
2023-04-24T05:33:27.183Z,9.96
2023-04-24T05:35:55.247Z,9.95
2023-04-24T05:38:23.469Z,9.83
2023-04-24T05:40:51.540Z,9.78
2023-04-24T05:43:19.859Z,9.71
2023-04-24T05:45:48.262Z,9.71
2023-04-24T05:48:16.363Z,9.65
2023-04-24T05:50:44.598Z,9.64
2023-04-24T05:53:12.926Z,9.63
2023-04-24T05:55:41.123Z,9.63
2023-04-24T05:58:09.086Z,9.70
2023-04-24T06:00:37.840Z,9.70
2023-04-24T06:03:06.180Z,9.69
2023-04-24T06:05:34.455Z,9.75
2023-04-24T06:08:02.474Z,9.82
2023-04-24T06:10:30.571Z,9.81
2023-04-24T06:13:02.538Z,9.81
2023-04-24T06:15:32.658Z,9.82
2023-04-24T06:18:01.157Z,9.82
2023-04-24T06:20:29.316Z,9.84
2023-04-24T06:22:57.406Z,9.91
2023-04-24T06:25:28.012Z,9.94
2023-04-24T06:30:24.061Z,10.04
2023-04-24T06:32:52.369Z,10.09
2023-04-24T06:35:20.552Z,10.08
2023-04-24T06:37:48.641Z,10.10
2023-04-24T06:40:16.859Z,10.04
2023-04-24T06:42:45.069Z,10.04
2023-04-24T06:45:13.612Z,10.18
2023-04-24T06:47:41.797Z,10.29
2023-04-24T06:50:10.217Z,10.39
2023-04-24T06:52:38.317Z,10.51
2023-04-24T06:55:06.822Z,10.63
2023-04-24T06:57:35.272Z,10.69
2023-04-24T07:00:03.464Z,10.99
2023-04-24T07:02:31.513Z,11.45
2023-04-24T07:04:59.599Z,11.59
2023-04-24T07:07:27.649Z,11.65
2023-04-24T07:09:56.494Z,11.74
2023-04-24T07:12:24.592Z,12.01
2023-04-24T07:14:53.129Z,12.03
2023-04-24T07:17:21.132Z,12.06
2023-04-24T07:19:49.157Z,11.72
2023-04-24T07:22:19.253Z,11.68
2023-04-24T07:24:47.389Z,11.68
2023-04-24T07:27:17.120Z,11.68
2023-04-24T07:29:45.803Z,11.82
2023-04-24T07:32:14.074Z,11.84
2023-04-24T07:34:42.385Z,11.99
2023-04-24T07:37:10.399Z,12.06
2023-04-24T07:39:38.461Z,12.20
2023-04-24T07:42:06.766Z,12.31
2023-04-24T07:44:34.951Z,12.27
2023-04-24T07:47:02.885Z,12.27
2023-04-24T07:49:30.875Z,12.39
2023-04-24T07:51:58.856Z,12.40
2023-04-24T07:54:26.969Z,12.40
2023-04-24T07:56:54.904Z,12.36
2023-04-24T07:59:22.870Z,12.50
2023-04-24T08:01:50.838Z,12.50
2023-04-24T08:04:20.292Z,12.40
2023-04-24T08:06:49.885Z,12.39
2023-04-24T08:09:17.786Z,12.35
2023-04-24T08:11:46.187Z,12.31
2023-04-24T08:14:15.630Z,12.14
2023-04-24T08:16:44.262Z,12.06
2023-04-24T08:19:12.503Z,11.94
2023-04-24T08:21:40.619Z,11.95
2023-04-24T08:24:10.370Z,12.06
2023-04-24T08:26:38.584Z,12.01
2023-04-24T08:29:08.447Z,11.89
2023-04-24T08:31:36.890Z,11.81
2023-04-24T08:34:04.945Z,11.67
2023-04-24T08:36:43.411Z,11.62
2023-04-24T08:39:14.347Z,11.60
2023-04-24T08:41:45.193Z,11.59
2023-04-24T08:44:13.313Z,11.52
2023-04-24T08:46:42.340Z,11.52
2023-04-24T08:49:10.554Z,11.63
2023-04-24T08:51:39.432Z,11.66
2023-04-24T08:54:07.659Z,11.75
2023-04-24T08:56:36.396Z,11.79
2023-04-24T08:59:04.399Z,11.81
2023-04-24T09:01:32.469Z,11.76
2023-04-24T09:04:00.720Z,11.81
2023-04-24T09:06:29.519Z,11.81
2023-04-24T09:08:58.864Z,11.86
2023-04-24T09:11:27.264Z,11.91
2023-04-24T09:13:56.144Z,11.92
2023-04-24T09:16:26.499Z,11.91
2023-04-24T09:18:54.632Z,11.95
2023-04-24T09:21:23.576Z,11.98
2023-04-24T09:24:02.108Z,12.05
2023-04-24T09:26:35.113Z,12.15
2023-04-24T09:29:03.288Z,12.34
2023-04-24T09:31:31.955Z,12.53
2023-04-24T09:34:02.092Z,12.61
2023-04-24T09:36:40.089Z,12.79
2023-04-24T09:39:10.623Z,13.28
2023-04-24T09:41:41.189Z,13.89
2023-04-24T09:44:19.472Z,13.91
2023-04-24T09:46:51.174Z,13.79
2023-04-24T09:49:22.570Z,13.59
2023-04-24T09:51:50.545Z,13.46
2023-04-24T09:54:27.116Z,13.44
2023-04-24T09:56:55.103Z,13.38
2023-04-24T09:59:23.207Z,13.32
2023-04-24T10:01:53.126Z,13.28
2023-04-24T10:04:26.580Z,13.21
2023-04-24T10:06:56.278Z,13.61
2023-04-24T10:09:28.514Z,13.98
2023-04-24T10:11:57.055Z,14.10
2023-04-24T10:14:26.581Z,13.94
2023-04-24T10:16:59.997Z,13.83
2023-04-24T10:19:28.366Z,13.74
2023-04-24T10:21:57.955Z,13.93
2023-04-24T10:24:25.997Z,13.95
2023-04-24T10:26:54.040Z,14.19
2023-04-24T10:29:23.788Z,14.15
2023-04-24T10:31:51.931Z,13.92
2023-04-24T10:34:20.233Z,13.78
2023-04-24T10:36:50.491Z,13.68
2023-04-24T10:39:18.470Z,13.65
2023-04-24T10:41:47.202Z,13.66
2023-04-24T10:44:16.831Z,13.49
2023-04-24T10:46:50.613Z,13.40
2023-04-24T10:49:18.581Z,13.39
2023-04-24T10:51:55.226Z,13.38
2023-04-24T10:54:47.240Z,13.40
2023-04-24T10:57:21.998Z,13.55
2023-04-24T10:59:51.109Z,13.90
2023-04-24T11:02:19.877Z,13.99
2023-04-24T11:04:48.563Z,14.24
2023-04-24T11:07:17.161Z,14.99
2023-04-24T11:09:45.483Z,15.50
2023-04-24T11:12:15.108Z,16.06
2023-04-24T11:14:58.867Z,15.97
2023-04-24T11:17:43.187Z,15.99
2023-04-24T11:20:26.962Z,15.68
2023-04-24T11:22:57.038Z,15.54
2023-04-24T11:25:25.200Z,15.62
2023-04-24T11:27:53.185Z,15.76
2023-04-24T11:30:22.345Z,15.77
2023-04-24T11:32:52.188Z,15.55
2023-04-24T11:35:22.637Z,15.22
2023-04-24T11:40:25.339Z,14.77
2023-04-24T11:42:53.940Z,14.59
2023-04-24T11:45:28.364Z,14.56
2023-04-24T11:47:56.414Z,14.56
2023-04-24T11:50:25.549Z,14.61
2023-04-24T11:52:53.554Z,14.97
2023-04-24T11:55:21.652Z,14.93
2023-04-24T11:57:51.071Z,15.21
2023-04-24T12:00:21.039Z,15.52
2023-04-24T12:02:49.703Z,15.37
2023-04-24T12:05:28.925Z,15.26
2023-04-24T12:07:57.358Z,15.09
2023-04-24T12:10:30.488Z,14.87
2023-04-24T12:12:59.278Z,14.86
2023-04-24T12:15:27.512Z,14.65
2023-04-24T12:17:56.147Z,14.64
2023-04-24T12:20:32.473Z,15.09
2023-04-24T12:23:03.812Z,15.47
2023-04-24T12:25:34.104Z,15.66
2023-04-24T12:28:05.461Z,15.88
2023-04-24T12:30:37.764Z,16.17
2023-04-24T12:33:05.881Z,16.51
2023-04-24T12:35:35.726Z,16.38
2023-04-24T12:38:16.291Z,16.50
2023-04-24T12:40:45.030Z,16.71
2023-04-24T12:43:22.284Z,16.43
2023-04-24T12:45:50.403Z,16.16
2023-04-24T12:48:18.535Z,16.01
2023-04-24T12:50:47.472Z,15.88
2023-04-24T12:53:16.074Z,16.08
2023-04-24T12:55:44.225Z,16.04
2023-04-24T12:58:12.234Z,15.92
2023-04-24T13:00:41.064Z,16.01
2023-04-24T13:03:09.260Z,16.09
2023-04-24T13:05:37.398Z,16.66
2023-04-24T13:08:05.611Z,16.84
2023-04-24T13:10:33.681Z,16.99
2023-04-24T13:13:01.895Z,17.16
2023-04-24T13:15:29.835Z,17.16
2023-04-24T13:17:57.993Z,16.96
2023-04-24T13:20:26.109Z,16.64
2023-04-24T13:22:54.267Z,16.33
2023-04-24T13:25:22.861Z,16.32
2023-04-24T13:27:50.840Z,17.05
2023-04-24T13:30:18.942Z,17.35
2023-04-24T13:32:47.129Z,17.82
2023-04-24T13:35:15.119Z,17.92
2023-04-24T13:37:43.101Z,18.30
2023-04-24T13:40:11.761Z,18.62
2023-04-24T13:42:39.792Z,18.33
2023-04-24T13:45:23.416Z,18.40
2023-04-24T13:47:53.236Z,18.34
2023-04-24T13:50:21.607Z,17.89
2023-04-24T13:52:49.732Z,17.38
2023-04-24T13:55:17.798Z,17.85
2023-04-24T13:57:45.752Z,17.92
2023-04-24T14:00:14.165Z,18.08
2023-04-24T14:02:42.481Z,17.96
2023-04-24T14:05:11.958Z,17.60
2023-04-24T14:07:40.070Z,17.28
2023-04-24T14:10:08.366Z,17.50
2023-04-24T14:12:36.543Z,17.68
2023-04-24T14:15:04.829Z,17.71
2023-04-24T14:17:33.408Z,17.53
2023-04-24T14:20:03.020Z,17.55
2023-04-24T14:22:31.128Z,17.49
2023-04-24T14:25:00.156Z,17.33
2023-04-24T14:27:28.604Z,17.04
2023-04-24T14:29:57.249Z,16.80
2023-04-24T14:32:25.349Z,16.74
2023-04-24T14:34:53.458Z,16.64
2023-04-24T14:37:21.480Z,16.53
2023-04-24T14:39:56.207Z,16.16
2023-04-24T14:42:34.586Z,16.00
2023-04-24T14:45:02.725Z,15.84
2023-04-24T14:47:31.610Z,15.81
2023-04-24T14:49:59.692Z,15.90
2023-04-24T14:52:28.067Z,15.92
2023-04-24T14:54:56.059Z,15.83
2023-04-24T14:57:24.171Z,15.78
2023-04-24T14:59:52.189Z,15.65
2023-04-24T15:02:22.244Z,15.51
2023-04-24T15:04:50.850Z,15.31
2023-04-24T15:07:19.270Z,15.28
2023-04-24T15:09:49.374Z,15.20
2023-04-24T15:12:17.732Z,15.12
2023-04-24T15:14:45.759Z,14.97
2023-04-24T15:17:13.731Z,14.88
2023-04-24T15:19:41.898Z,14.70
2023-04-24T15:22:09.895Z,14.70
2023-04-24T15:24:37.926Z,14.61
2023-04-24T15:27:05.905Z,14.52
2023-04-24T15:29:34.081Z,14.40
2023-04-24T15:32:02.225Z,14.46
2023-04-24T15:34:30.238Z,14.54
2023-04-24T15:36:58.224Z,14.61
2023-04-24T15:39:26.755Z,14.66
2023-04-24T15:41:55.687Z,14.69
2023-04-24T15:44:23.996Z,14.75
2023-04-24T15:46:53.565Z,14.75
2023-04-24T15:49:21.819Z,14.73
2023-04-24T15:51:49.768Z,14.66
2023-04-24T15:54:17.998Z,14.62
2023-04-24T15:56:46.709Z,14.58
2023-04-24T15:59:14.841Z,14.55
2023-04-24T16:01:42.942Z,14.49
2023-04-24T16:04:11.141Z,14.38
2023-04-24T16:06:39.391Z,14.31
2023-04-24T16:09:07.789Z,14.30
2023-04-24T16:11:37.893Z,14.25
2023-04-24T16:14:05.929Z,14.22
2023-04-24T16:16:34.315Z,14.15
2023-04-24T16:19:02.755Z,14.13
2023-04-24T16:21:31.032Z,14.07
2023-04-24T16:23:58.977Z,14.05
2023-04-24T16:26:27.789Z,14.08
2023-04-24T16:28:57.264Z,14.07
2023-04-24T16:31:25.370Z,14.00
2023-04-24T16:33:53.327Z,13.99
2023-04-24T16:36:22.151Z,13.92
2023-04-24T16:38:52.945Z,13.90
2023-04-24T16:41:20.932Z,13.87
2023-04-24T16:43:48.947Z,13.83
2023-04-24T16:46:17.033Z,13.83
2023-04-24T16:48:45.094Z,13.84
2023-04-24T16:51:13.059Z,13.84
2023-04-24T16:53:41.066Z,13.82
2023-04-24T16:56:09.123Z,13.74
2023-04-24T16:58:37.299Z,13.76
2023-04-24T17:01:05.534Z,13.74
2023-04-24T17:03:33.757Z,13.70
2023-04-24T17:06:02.459Z,13.67
2023-04-24T17:08:31.329Z,13.57
2023-04-24T17:10:59.317Z,13.48
2023-04-24T17:13:27.535Z,13.43
2023-04-24T17:15:55.610Z,13.39
2023-04-24T17:18:23.683Z,13.35
2023-04-24T17:20:51.762Z,13.33
2023-04-24T17:23:19.758Z,13.30
2023-04-24T17:25:47.828Z,13.27
2023-04-24T17:28:27.188Z,13.26
2023-04-24T17:30:56.998Z,13.25
2023-04-24T17:33:28.785Z,13.26
2023-04-24T17:35:57.331Z,13.25
2023-04-24T17:38:25.860Z,13.21
2023-04-24T17:40:54.519Z,13.19
2023-04-24T17:43:22.508Z,13.16
2023-04-24T17:45:54.754Z,13.13
2023-04-24T17:48:23.646Z,13.10
2023-04-24T17:50:51.736Z,13.06
2023-04-24T17:53:24.125Z,13.04
2023-04-24T17:55:52.173Z,12.98
2023-04-24T17:58:20.400Z,12.92
2023-04-24T18:00:48.492Z,12.86
2023-04-24T18:03:17.051Z,12.84
2023-04-24T18:05:45.179Z,12.79
2023-04-24T18:08:13.193Z,12.73
2023-04-24T18:10:41.823Z,12.70
2023-04-24T18:13:11.276Z,12.67
2023-04-24T18:15:43.654Z,12.60
2023-04-24T18:18:12.542Z,12.54
2023-04-24T18:20:40.743Z,12.47
2023-04-24T18:23:08.754Z,12.44
2023-04-24T18:25:36.835Z,12.38
2023-04-24T18:28:04.924Z,12.33
2023-04-24T18:30:33.905Z,12.27
2023-04-24T18:33:02.052Z,12.21
2023-04-24T18:35:30.135Z,12.14
2023-04-24T18:37:58.227Z,12.05
2023-04-24T18:40:26.250Z,12.02
2023-04-24T18:42:54.286Z,11.91
2023-04-24T18:45:22.631Z,11.80
2023-04-24T18:47:51.512Z,11.74
2023-04-24T18:50:20.758Z,11.63
2023-04-24T18:52:48.806Z,11.57
2023-04-24T18:55:16.789Z,11.56
2023-04-24T18:57:44.792Z,11.58
2023-04-24T19:00:13.324Z,11.60
2023-04-24T19:02:41.492Z,11.59
2023-04-24T19:05:11.727Z,11.55
2023-04-24T19:07:39.773Z,11.51
2023-04-24T19:10:08.524Z,11.50
2023-04-24T19:12:36.510Z,11.50
2023-04-24T19:15:04.725Z,11.49
2023-04-24T19:17:33.320Z,11.46
2023-04-24T19:20:01.474Z,11.38
2023-04-24T19:22:30.999Z,11.31
2023-04-24T19:25:00.102Z,11.30
2023-04-24T19:27:28.139Z,11.25
2023-04-24T19:29:56.269Z,11.16
2023-04-24T19:32:24.409Z,11.12
2023-04-24T19:34:52.591Z,11.07
2023-04-24T19:37:20.680Z,11.05
2023-04-24T19:39:48.758Z,11.00
2023-04-24T19:42:18.185Z,10.97
2023-04-24T19:44:49.361Z,10.95
2023-04-24T19:47:17.416Z,10.95
2023-04-24T19:49:45.513Z,10.88
2023-04-24T19:52:13.483Z,10.90
2023-04-24T19:54:41.896Z,10.93
2023-04-24T19:57:09.945Z,10.86
2023-04-24T19:59:38.118Z,10.85
2023-04-24T20:02:06.187Z,10.86
2023-04-24T20:04:34.350Z,10.86
2023-04-24T20:07:02.530Z,10.87
2023-04-24T20:09:32.451Z,10.88
2023-04-24T20:12:01.836Z,10.88
2023-04-24T20:14:29.872Z,10.86
2023-04-24T20:16:57.875Z,10.84
2023-04-24T20:19:25.934Z,10.87
2023-04-24T20:21:54.149Z,10.85
2023-04-24T20:24:22.254Z,10.86
2023-04-24T20:26:50.422Z,10.88
2023-04-24T20:29:18.509Z,10.85
2023-04-24T20:31:46.636Z,10.80
2023-04-24T20:34:14.760Z,10.77
2023-04-24T20:36:46.885Z,10.76
2023-04-24T20:39:16.985Z,10.73
2023-04-24T20:41:45.556Z,10.72
2023-04-24T20:44:13.640Z,10.72
2023-04-24T20:46:41.863Z,10.73
2023-04-24T20:49:09.909Z,10.74
2023-04-24T20:51:38.396Z,10.75
2023-04-24T20:54:07.272Z,10.75
2023-04-24T20:56:35.445Z,10.73
2023-04-24T20:59:03.520Z,10.70
2023-04-24T21:01:31.710Z,10.71
2023-04-24T21:03:59.861Z,10.68
2023-04-24T21:06:27.968Z,10.67
2023-04-24T21:08:56.012Z,10.64
2023-04-24T21:11:23.974Z,10.62
2023-04-24T21:13:52.131Z,10.61
2023-04-24T21:16:20.172Z,10.60
2023-04-24T21:18:48.376Z,10.52
2023-04-24T21:21:16.426Z,10.48
2023-04-24T21:23:44.536Z,10.42
2023-04-24T21:26:12.553Z,10.41
2023-04-24T21:28:40.821Z,10.41
2023-04-24T21:31:09.171Z,10.39
2023-04-24T21:33:37.317Z,10.32
2023-04-24T21:36:05.647Z,10.31
2023-04-24T21:38:34.026Z,10.32
2023-04-24T21:41:02.208Z,10.29
2023-04-24T21:43:49.829Z,10.30
2023-04-24T21:46:18.374Z,10.33
2023-04-24T21:48:46.418Z,10.32
2023-04-24T21:51:14.569Z,10.33
2023-04-24T21:53:42.887Z,10.34
2023-04-24T21:56:10.834Z,10.35
2023-04-24T21:58:38.914Z,10.36
2023-04-24T22:01:07.274Z,10.38
2023-04-24T22:03:35.475Z,10.34
2023-04-24T22:06:03.772Z,10.30
2023-04-24T22:08:31.732Z,10.31
2023-04-24T22:10:59.893Z,10.31
2023-04-24T22:13:28.643Z,10.34
2023-04-24T22:15:56.754Z,10.30
2023-04-24T22:18:33.321Z,10.27
2023-04-24T22:21:08.450Z,10.28
2023-04-24T22:23:36.526Z,10.27
2023-04-24T22:26:04.627Z,10.27
2023-04-24T22:28:32.755Z,10.27
2023-04-24T22:31:00.760Z,10.26
2023-04-24T22:33:28.666Z,10.20
2023-04-24T22:35:56.910Z,10.21
2023-04-24T22:38:25.065Z,10.22
2023-04-24T22:40:53.053Z,10.22
2023-04-24T22:43:21.305Z,10.24
2023-04-24T22:45:49.293Z,10.23
2023-04-24T22:48:17.747Z,10.26
2023-04-24T22:50:45.670Z,10.25
2023-04-24T22:53:13.648Z,10.27
2023-04-24T22:55:41.666Z,10.25
2023-04-24T22:58:09.584Z,10.27
2023-04-24T23:00:37.727Z,10.28
2023-04-24T23:03:05.982Z,10.25
2023-04-24T23:05:34.034Z,10.29
2023-04-24T23:08:01.962Z,10.21
2023-04-24T23:10:30.027Z,10.21
2023-04-24T23:12:58.032Z,10.21
2023-04-24T23:15:26.151Z,10.24
2023-04-24T23:17:54.150Z,10.20
2023-04-24T23:20:22.884Z,10.17
2023-04-24T23:22:50.902Z,10.17
2023-04-24T23:25:18.960Z,10.20
2023-04-24T23:27:46.988Z,10.20
2023-04-24T23:30:15.016Z,10.19
2023-04-24T23:32:45.367Z,10.18
2023-04-24T23:35:14.010Z,10.21
2023-04-24T23:37:42.118Z,10.21
2023-04-24T23:40:13.541Z,10.21
2023-04-24T23:42:41.562Z,10.22
2023-04-24T23:45:11.880Z,10.20
2023-04-24T23:47:39.872Z,10.21
2023-04-24T23:50:08.096Z,10.21
2023-04-24T23:52:36.877Z,10.18
2023-04-24T23:55:06.090Z,10.13
2023-04-24T23:57:34.066Z,10.07
